aviador You're here:

OITM Decoded Metar

MARAGHEH in IRAN
Report Time2017-12-18 08:00:00
UTC Time2017-12-18 09:03:49
Flight Rules ifr IFR
Wind140° at 04 kt
W.Decomp.*RWY 08: 2.2 kt HW 3.3 kt RCW
W.Rank140° ranks 26
Current wind is below 140° avg. (6.2)
Visibility4000 m
Phenomena:Haze
Clouds:N/A
Expected CloudBase > 3,600 ft AGL from Temp-Dew spread
CeilingNone
Temp07°C (ISA +1)
Dew Point-2°C (53% RH)
AAT3.3°C
QNH1025 hPa
Density Alt4,160 ft
Elevation4,396 ft
Report Wrong Elevation
Raw Report
METAR OITM 180800Z 14004KT 4000 HZ NSC 07/M02 Q1025=

Extra information for OITM:More info

Metar Taf Metar & Taf Last 4 Metars F.Rules Stats Wind Profile Meteogram Temp Stats Airport Information Weather charts Add Link Nearby VenuesMetar ALERT Operation Metar Decoded Social comments